ěÝzenÝ letovÚho provozu ╚eskÚ republiky
Letiste: LKLN Aktualizace: 29.05.2023 15:59:38  UTC
 METAR LKLN 29.05. 16:00 ...
METAR LKLN 291600Z AUTO 03005KT 320V090 9999 // NCD 23/02 Q1018=